BRX7134 ENVA-ENBR
Flight info
| Callsign | BRX7134 |
|---|---|
| Flight time | 1h 10m |
| Altitude | 24000 |
| Route | OSMUM DCT KEKOD DCT LUNUR |
| Aircraft | DH8D/M-SDE2E3FGRY/H |
Departure
| Time | 2026-05-04 05:07 |
|---|---|
| Airport | Trondheim Airport, Værnes (ENVA) |
Arrival
| Time | 2026-05-04 06:18 |
|---|---|
| Airport | Bergen Airport, Flesland (ENBR) |
| Time | Latitude | Longitude | Altitude | Speed | Heading |
|---|---|---|---|---|---|
| 2026-05-04 04:39 | 63.45418 | 10.91269 | 0 ft | 0 kts | 90° |
| 2026-05-04 04:56 | 63.45418 | 10.91270 | 0 ft | 0 kts | 90° |
| 2026-05-04 04:56 | 63.45418 | 10.91252 | 0 ft | 2 kts | 91° |
| 2026-05-04 04:56 | 63.45419 | 10.91220 | 0 ft | 1 kts | 90° |
| 2026-05-04 04:57 | 63.45418 | 10.91198 | 0 ft | 2 kts | 77° |
| 2026-05-04 04:57 | 63.45412 | 10.91169 | 0 ft | 2 kts | 49° |
| 2026-05-04 04:57 | 63.45400 | 10.91149 | 0 ft | 2 kts | 22° |
| 2026-05-04 04:57 | 63.45388 | 10.91143 | 0 ft | 1 kts | 2° |
| 2026-05-04 04:58 | 63.45387 | 10.91142 | 0 ft | 0 kts | 2° |
| 2026-05-04 05:01 | 63.45388 | 10.91143 | 0 ft | 0 kts | 2° |
| 2026-05-04 05:01 | 63.45433 | 10.91144 | 0 ft | 7 kts | 0° |
| 2026-05-04 05:02 | 63.45494 | 10.91145 | 0 ft | 9 kts | 1° |
| 2026-05-04 05:02 | 63.45557 | 10.91145 | 0 ft | 8 kts | 0° |
| 2026-05-04 05:02 | 63.45599 | 10.91082 | 0 ft | 8 kts | 273° |
| 2026-05-04 05:02 | 63.45598 | 10.90943 | -1 ft | 10 kts | 270° |
| 2026-05-04 05:03 | 63.45599 | 10.90772 | -3 ft | 11 kts | 272° |
| 2026-05-04 05:03 | 63.45599 | 10.90593 | -3 ft | 11 kts | 270° |
| 2026-05-04 05:04 | 63.45600 | 10.90036 | -3 ft | 13 kts | 270° |
| 2026-05-04 05:04 | 63.45601 | 10.89817 | -3 ft | 14 kts | 270° |
| 2026-05-04 05:04 | 63.45607 | 10.89580 | -2 ft | 15 kts | 292° |
| 2026-05-04 05:06 | 63.45755 | 10.89290 | -2 ft | 9 kts | 41° |
| 2026-05-04 05:06 | 63.45765 | 10.89358 | -2 ft | 0 kts | 88° |
| 2026-05-04 05:06 | 63.45764 | 10.89620 | -2 ft | 60 kts | 91° |
| 2026-05-04 05:07 | 63.45763 | 10.91239 | 4 ft | 139 kts | 89° |
| 2026-05-04 05:07 | 63.45750 | 10.93553 | 463 ft | 157 kts | 91° |
| 2026-05-04 05:07 | 63.45700 | 10.96011 | 1252 ft | 164 kts | 92° |
| 2026-05-04 05:09 | 63.45473 | 11.24441 | 5639 ft | 266 kts | 89° |
| 2026-05-04 05:09 | 63.45421 | 11.28579 | 6195 ft | 270 kts | 98° |
| 2026-05-04 05:10 | 63.44647 | 11.32294 | 6732 ft | 268 kts | 137° |
| 2026-05-04 05:10 | 63.43080 | 11.34096 | 7341 ft | 255 kts | 175° |
| 2026-05-04 05:10 | 63.41322 | 11.34337 | 7922 ft | 254 kts | 184° |
| 2026-05-04 05:10 | 63.40165 | 11.34377 | 8384 ft | 253 kts | 184° |
| 2026-05-04 05:11 | 63.37849 | 11.34135 | 9209 ft | 248 kts | 199° |
| 2026-05-04 05:11 | 63.36454 | 11.32112 | 9796 ft | 241 kts | 228° |
| 2026-05-04 05:11 | 63.35263 | 11.29266 | 9869 ft | 262 kts | 230° |
| 2026-05-04 05:11 | 63.34000 | 11.26194 | 10084 ft | 272 kts | 230° |
| 2026-05-04 05:12 | 63.32735 | 11.23102 | 10461 ft | 276 kts | 230° |
| 2026-05-04 05:12 | 63.31432 | 11.19917 | 10896 ft | 279 kts | 230° |
| 2026-05-04 05:12 | 63.30137 | 11.16754 | 11324 ft | 283 kts | 230° |
| 2026-05-04 05:12 | 63.28831 | 11.13570 | 11945 ft | 281 kts | 230° |
| 2026-05-04 05:13 | 63.27501 | 11.10327 | 12464 ft | 282 kts | 230° |
| 2026-05-04 05:13 | 63.26161 | 11.07064 | 12838 ft | 285 kts | 230° |
| 2026-05-04 05:13 | 63.24831 | 11.03833 | 13242 ft | 286 kts | 230° |
| 2026-05-04 05:13 | 63.23484 | 11.00567 | 13536 ft | 291 kts | 230° |
| 2026-05-04 05:14 | 63.22127 | 10.97282 | 13974 ft | 290 kts | 231° |
| 2026-05-04 05:14 | 63.21210 | 10.95062 | 14222 ft | 291 kts | 230° |
| 2026-05-04 05:14 | 63.19387 | 10.90656 | 14775 ft | 294 kts | 230° |
| 2026-05-04 05:14 | 63.18016 | 10.87341 | 15086 ft | 297 kts | 230° |
| 2026-05-04 05:15 | 63.17080 | 10.85084 | 15294 ft | 299 kts | 230° |
| 2026-05-04 05:15 | 63.15188 | 10.80532 | 15722 ft | 301 kts | 230° |
| 2026-05-04 05:15 | 63.13791 | 10.77174 | 16020 ft | 302 kts | 230° |
| 2026-05-04 05:15 | 63.12357 | 10.73736 | 16334 ft | 302 kts | 230° |
| 2026-05-04 05:16 | 63.10941 | 10.70346 | 16650 ft | 301 kts | 230° |
| 2026-05-04 05:16 | 63.09529 | 10.66970 | 16955 ft | 300 kts | 231° |
| 2026-05-04 05:16 | 63.08105 | 10.63575 | 17256 ft | 299 kts | 231° |
| 2026-05-04 05:16 | 63.06720 | 10.60274 | 17557 ft | 297 kts | 231° |
| 2026-05-04 05:17 | 63.05316 | 10.56939 | 17850 ft | 296 kts | 231° |
| 2026-05-04 05:17 | 63.03915 | 10.53616 | 18166 ft | 294 kts | 231° |
| 2026-05-04 05:17 | 63.02539 | 10.50355 | 18446 ft | 292 kts | 231° |
| 2026-05-04 05:17 | 63.01168 | 10.47111 | 18763 ft | 290 kts | 231° |
| 2026-05-04 05:18 | 62.99807 | 10.43897 | 19050 ft | 288 kts | 231° |
| 2026-05-04 05:18 | 62.98446 | 10.40688 | 19354 ft | 286 kts | 231° |
| 2026-05-04 05:18 | 62.97086 | 10.37486 | 19674 ft | 284 kts | 231° |
| 2026-05-04 05:18 | 62.95767 | 10.34388 | 19953 ft | 279 kts | 230° |
| 2026-05-04 05:19 | 62.94442 | 10.31281 | 20300 ft | 276 kts | 230° |
| 2026-05-04 05:19 | 62.93153 | 10.28262 | 20604 ft | 272 kts | 230° |
| 2026-05-04 05:19 | 62.91871 | 10.25261 | 20912 ft | 269 kts | 230° |
| 2026-05-04 05:19 | 62.90598 | 10.22284 | 21213 ft | 266 kts | 230° |
| 2026-05-04 05:20 | 62.89333 | 10.19330 | 21483 ft | 264 kts | 230° |
| 2026-05-04 05:20 | 62.88078 | 10.16401 | 21734 ft | 262 kts | 230° |
| 2026-05-04 05:20 | 62.86845 | 10.13528 | 21982 ft | 260 kts | 230° |
| 2026-05-04 05:20 | 62.86015 | 10.11595 | 22157 ft | 259 kts | 230° |
| 2026-05-04 05:21 | 62.84389 | 10.07816 | 22507 ft | 256 kts | 229° |
| 2026-05-04 05:21 | 62.83154 | 10.04982 | 22756 ft | 255 kts | 229° |
| 2026-05-04 05:21 | 62.81918 | 10.02238 | 23022 ft | 253 kts | 229° |
| 2026-05-04 05:21 | 62.80706 | 9.99555 | 23262 ft | 251 kts | 229° |
| 2026-05-04 05:22 | 62.79520 | 9.96930 | 23512 ft | 249 kts | 228° |
| 2026-05-04 05:22 | 62.78288 | 9.94202 | 23589 ft | 252 kts | 229° |
| 2026-05-04 05:22 | 62.77056 | 9.91473 | 23616 ft | 257 kts | 229° |
| 2026-05-04 05:22 | 62.76208 | 9.89594 | 23622 ft | 262 kts | 228° |
| 2026-05-04 05:23 | 62.74472 | 9.85750 | 23598 ft | 269 kts | 229° |
| 2026-05-04 05:23 | 62.73154 | 9.82839 | 23599 ft | 274 kts | 228° |
| 2026-05-04 05:23 | 62.71781 | 9.79809 | 23585 ft | 277 kts | 228° |
| 2026-05-04 05:23 | 62.70436 | 9.76846 | 23583 ft | 280 kts | 228° |
| 2026-05-04 05:24 | 62.69065 | 9.73831 | 23560 ft | 281 kts | 228° |
| 2026-05-04 05:24 | 62.67667 | 9.70762 | 23567 ft | 282 kts | 229° |
| 2026-05-04 05:24 | 62.66296 | 9.67754 | 23572 ft | 284 kts | 228° |
| 2026-05-04 05:24 | 62.64902 | 9.64701 | 23550 ft | 285 kts | 228° |
| 2026-05-04 05:25 | 62.63505 | 9.61649 | 23540 ft | 285 kts | 228° |
| 2026-05-04 05:25 | 62.62099 | 9.58578 | 23562 ft | 286 kts | 228° |
| 2026-05-04 05:25 | 62.60695 | 9.55518 | 23551 ft | 286 kts | 229° |
| 2026-05-04 05:25 | 62.59305 | 9.52492 | 23558 ft | 286 kts | 228° |
| 2026-05-04 05:26 | 62.57908 | 9.49455 | 23555 ft | 287 kts | 229° |
| 2026-05-04 05:26 | 62.56490 | 9.46376 | 23543 ft | 287 kts | 228° |
| 2026-05-04 05:26 | 62.55074 | 9.43307 | 23537 ft | 286 kts | 229° |
| 2026-05-04 05:26 | 62.53665 | 9.40256 | 23551 ft | 286 kts | 229° |
| 2026-05-04 05:27 | 62.52256 | 9.37212 | 23550 ft | 286 kts | 229° |
| 2026-05-04 05:28 | 62.42400 | 9.16023 | 23591 ft | 286 kts | 228° |
| 2026-05-04 05:29 | 62.40969 | 9.12964 | 23587 ft | 287 kts | 228° |
| 2026-05-04 05:29 | 62.39568 | 9.09972 | 23579 ft | 287 kts | 228° |
| 2026-05-04 05:29 | 62.38617 | 9.07944 | 23574 ft | 287 kts | 228° |
| 2026-05-04 05:29 | 62.36719 | 9.03904 | 23588 ft | 287 kts | 228° |
| 2026-05-04 05:31 | 62.26763 | 8.82831 | 23591 ft | 288 kts | 228° |
| 2026-05-04 05:31 | 62.25349 | 8.79854 | 23596 ft | 287 kts | 228° |
| 2026-05-04 05:32 | 62.23914 | 8.76839 | 23594 ft | 287 kts | 228° |
| 2026-05-04 05:32 | 62.22476 | 8.73822 | 23598 ft | 287 kts | 228° |
| 2026-05-04 05:32 | 62.21059 | 8.70849 | 23590 ft | 287 kts | 228° |
| 2026-05-04 05:33 | 62.18218 | 8.64908 | 23574 ft | 287 kts | 228° |
| 2026-05-04 05:33 | 62.16785 | 8.61918 | 23571 ft | 287 kts | 228° |
| 2026-05-04 05:33 | 62.15833 | 8.59932 | 23570 ft | 286 kts | 228° |
| 2026-05-04 05:33 | 62.13937 | 8.55984 | 23573 ft | 286 kts | 228° |
| 2026-05-04 05:34 | 62.12985 | 8.54006 | 23570 ft | 286 kts | 228° |
| 2026-05-04 05:34 | 62.11573 | 8.51075 | 23576 ft | 286 kts | 228° |
| 2026-05-04 05:34 | 62.09663 | 8.47114 | 23568 ft | 286 kts | 228° |
| 2026-05-04 05:34 | 62.08714 | 8.45148 | 23572 ft | 285 kts | 228° |
| 2026-05-04 05:35 | 62.06825 | 8.41243 | 23575 ft | 285 kts | 228° |
| 2026-05-04 05:35 | 62.05866 | 8.39263 | 23563 ft | 285 kts | 229° |
| 2026-05-04 05:35 | 62.03967 | 8.35348 | 23573 ft | 285 kts | 229° |
| 2026-05-04 05:35 | 62.02550 | 8.32431 | 23583 ft | 285 kts | 228° |
| 2026-05-04 05:36 | 62.01116 | 8.29481 | 23576 ft | 286 kts | 227° |
| 2026-05-04 05:36 | 61.99676 | 8.26524 | 23572 ft | 286 kts | 228° |
| 2026-05-04 05:36 | 61.98264 | 8.23629 | 23585 ft | 286 kts | 228° |
| 2026-05-04 05:36 | 61.96817 | 8.20668 | 23586 ft | 286 kts | 228° |
| 2026-05-04 05:37 | 61.95378 | 8.17724 | 23572 ft | 286 kts | 228° |
| 2026-05-04 05:37 | 61.93945 | 8.14799 | 23581 ft | 286 kts | 228° |
| 2026-05-04 05:37 | 61.92511 | 8.11876 | 23585 ft | 286 kts | 228° |
| 2026-05-04 05:38 | 61.89624 | 8.06001 | 23577 ft | 287 kts | 228° |
| 2026-05-04 05:38 | 61.88229 | 8.03169 | 23579 ft | 287 kts | 228° |
| 2026-05-04 05:38 | 61.86790 | 8.00251 | 23574 ft | 288 kts | 228° |
| 2026-05-04 05:38 | 61.85819 | 7.98283 | 23574 ft | 288 kts | 228° |
| 2026-05-04 05:39 | 61.83887 | 7.94376 | 23574 ft | 288 kts | 228° |
| 2026-05-04 05:39 | 61.81002 | 7.88553 | 23572 ft | 289 kts | 228° |
| 2026-05-04 05:39 | 61.79547 | 7.85623 | 23559 ft | 289 kts | 228° |
| 2026-05-04 05:40 | 61.76622 | 7.79744 | 23557 ft | 289 kts | 229° |
| 2026-05-04 05:40 | 61.75171 | 7.76834 | 23572 ft | 289 kts | 229° |
| 2026-05-04 05:40 | 61.73710 | 7.73907 | 23567 ft | 289 kts | 228° |
| 2026-05-04 05:41 | 61.72738 | 7.71962 | 23566 ft | 289 kts | 229° |
| 2026-05-04 05:41 | 61.71290 | 7.69070 | 23579 ft | 289 kts | 229° |
| 2026-05-04 05:41 | 61.69825 | 7.66145 | 23593 ft | 289 kts | 228° |
| 2026-05-04 05:41 | 61.68386 | 7.63280 | 23585 ft | 289 kts | 229° |
| 2026-05-04 05:42 | 61.66420 | 7.59366 | 23599 ft | 289 kts | 228° |
| 2026-05-04 05:42 | 61.65454 | 7.57448 | 23601 ft | 289 kts | 229° |
| 2026-05-04 05:42 | 61.63477 | 7.53643 | 23593 ft | 290 kts | 228° |
| 2026-05-04 05:42 | 61.62472 | 7.51750 | 23614 ft | 289 kts | 228° |
| 2026-05-04 05:43 | 61.60460 | 7.47956 | 23610 ft | 290 kts | 227° |
| 2026-05-04 05:43 | 61.58959 | 7.45129 | 23620 ft | 290 kts | 227° |
| 2026-05-04 05:43 | 61.57476 | 7.42337 | 23638 ft | 289 kts | 227° |
| 2026-05-04 05:45 | 61.47586 | 7.23785 | 23748 ft | 288 kts | 227° |
| 2026-05-04 05:45 | 61.45597 | 7.20068 | 23755 ft | 289 kts | 227° |
| 2026-05-04 05:47 | 61.35004 | 7.00397 | 23754 ft | 292 kts | 228° |
| 2026-05-04 05:47 | 61.33983 | 6.98510 | 23748 ft | 292 kts | 227° |
| 2026-05-04 05:47 | 61.32464 | 6.95708 | 23750 ft | 292 kts | 227° |
| 2026-05-04 05:48 | 61.30439 | 6.91977 | 23742 ft | 292 kts | 228° |
| 2026-05-04 05:48 | 61.28915 | 6.89173 | 23736 ft | 292 kts | 227° |
| 2026-05-04 05:48 | 61.27419 | 6.86425 | 23728 ft | 292 kts | 227° |
| 2026-05-04 05:48 | 61.26389 | 6.84536 | 23730 ft | 292 kts | 228° |
| 2026-05-04 05:49 | 61.24383 | 6.80861 | 23728 ft | 291 kts | 228° |
| 2026-05-04 05:49 | 61.23367 | 6.79001 | 23731 ft | 291 kts | 227° |
| 2026-05-04 05:49 | 61.21835 | 6.76200 | 23730 ft | 291 kts | 228° |
| 2026-05-04 05:49 | 61.20322 | 6.73437 | 23712 ft | 291 kts | 228° |
| 2026-05-04 05:51 | 61.09188 | 6.53225 | 23724 ft | 290 kts | 228° |
| 2026-05-04 05:51 | 61.07667 | 6.50479 | 23711 ft | 290 kts | 228° |
| 2026-05-04 05:52 | 61.06648 | 6.48642 | 23715 ft | 290 kts | 228° |
| 2026-05-04 05:52 | 61.05143 | 6.45929 | 23717 ft | 290 kts | 228° |
| 2026-05-04 05:52 | 61.03118 | 6.42288 | 23712 ft | 290 kts | 228° |
| 2026-05-04 05:52 | 61.02113 | 6.40482 | 23707 ft | 290 kts | 228° |
| 2026-05-04 05:53 | 61.00115 | 6.36911 | 23509 ft | 280 kts | 228° |
| 2026-05-04 05:54 | 60.90616 | 6.19974 | 21388 ft | 274 kts | 229° |
| 2026-05-04 05:55 | 60.88699 | 6.16565 | 20944 ft | 275 kts | 229° |
| 2026-05-04 05:55 | 60.87735 | 6.14853 | 20721 ft | 276 kts | 229° |
| 2026-05-04 05:55 | 60.85791 | 6.11405 | 20269 ft | 277 kts | 229° |
| 2026-05-04 05:55 | 60.84816 | 6.09688 | 20032 ft | 279 kts | 228° |
| 2026-05-04 05:56 | 60.83125 | 6.07686 | 19693 ft | 295 kts | 211° |
| 2026-05-04 05:56 | 60.81153 | 6.06462 | 19331 ft | 300 kts | 207° |
| 2026-05-04 05:56 | 60.79144 | 6.05308 | 18956 ft | 301 kts | 206° |
| 2026-05-04 05:56 | 60.77131 | 6.04156 | 18589 ft | 302 kts | 206° |
| 2026-05-04 05:57 | 60.75086 | 6.02982 | 18210 ft | 304 kts | 206° |
| 2026-05-04 05:57 | 60.73073 | 6.01822 | 17846 ft | 305 kts | 206° |
| 2026-05-04 05:57 | 60.71011 | 6.00632 | 17460 ft | 306 kts | 205° |
| 2026-05-04 05:57 | 60.68288 | 5.99059 | 16969 ft | 307 kts | 205° |
| 2026-05-04 05:58 | 60.66906 | 5.98259 | 16718 ft | 308 kts | 205° |
| 2026-05-04 05:58 | 60.64847 | 5.97067 | 16342 ft | 309 kts | 205° |
| 2026-05-04 05:58 | 60.62083 | 5.95468 | 15836 ft | 311 kts | 204° |
| 2026-05-04 05:58 | 60.60692 | 5.94662 | 15583 ft | 311 kts | 204° |
| 2026-05-04 05:59 | 60.58642 | 5.93477 | 15211 ft | 312 kts | 204° |
| 2026-05-04 05:59 | 60.56554 | 5.92272 | 14823 ft | 312 kts | 204° |
| 2026-05-04 05:59 | 60.54456 | 5.91061 | 14437 ft | 313 kts | 204° |
| 2026-05-04 05:59 | 60.51668 | 5.89457 | 13938 ft | 313 kts | 204° |
| 2026-05-04 06:00 | 60.50279 | 5.88655 | 13692 ft | 312 kts | 203° |
| 2026-05-04 06:00 | 60.48208 | 5.87464 | 13305 ft | 312 kts | 203° |
| 2026-05-04 06:00 | 60.46140 | 5.86279 | 12919 ft | 307 kts | 203° |
| 2026-05-04 06:00 | 60.44143 | 5.85163 | 12547 ft | 289 kts | 202° |
| 2026-05-04 06:01 | 60.42238 | 5.84098 | 12220 ft | 280 kts | 203° |
| 2026-05-04 06:01 | 60.40378 | 5.83038 | 11894 ft | 276 kts | 204° |
| 2026-05-04 06:03 | 60.27781 | 5.75872 | 9625 ft | 262 kts | 202° |
| 2026-05-04 06:03 | 60.26074 | 5.74924 | 9306 ft | 249 kts | 202° |
| 2026-05-04 06:05 | 60.14964 | 5.72433 | 7170 ft | 243 kts | 164° |
| 2026-05-04 06:05 | 60.11704 | 5.74365 | 6548 ft | 242 kts | 181° |
| 2026-05-04 06:05 | 60.10064 | 5.74408 | 6437 ft | 233 kts | 186° |
| 2026-05-04 06:06 | 60.08456 | 5.74404 | 6393 ft | 227 kts | 185° |
| 2026-05-04 06:06 | 60.06874 | 5.74314 | 6374 ft | 230 kts | 193° |
| 2026-05-04 06:06 | 60.05321 | 5.73458 | 6303 ft | 233 kts | 206° |
| 2026-05-04 06:06 | 60.03789 | 5.72296 | 6207 ft | 241 kts | 206° |
| 2026-05-04 06:07 | 60.01747 | 5.70761 | 6026 ft | 228 kts | 208° |
| 2026-05-04 06:07 | 60.00854 | 5.69735 | 5974 ft | 212 kts | 222° |
| 2026-05-04 06:07 | 59.99736 | 5.67896 | 5942 ft | 206 kts | 226° |
| 2026-05-04 06:07 | 59.98641 | 5.66039 | 5868 ft | 206 kts | 226° |
| 2026-05-04 06:08 | 59.97535 | 5.64147 | 5785 ft | 214 kts | 226° |
| 2026-05-04 06:08 | 59.96546 | 5.61894 | 5674 ft | 217 kts | 243° |
| 2026-05-04 06:08 | 59.95818 | 5.59246 | 5569 ft | 222 kts | 247° |
| 2026-05-04 06:08 | 59.95106 | 5.56490 | 5394 ft | 222 kts | 250° |
| 2026-05-04 06:09 | 59.94963 | 5.53635 | 5164 ft | 200 kts | 291° |
| 2026-05-04 06:09 | 59.95835 | 5.51660 | 5080 ft | 194 kts | 329° |
| 2026-05-04 06:11 | 60.04672 | 5.45108 | 4417 ft | 191 kts | 341° |
| 2026-05-04 06:11 | 60.05944 | 5.44277 | 4321 ft | 190 kts | 341° |
| 2026-05-04 06:13 | 60.10699 | 5.30811 | 3648 ft | 204 kts | 284° |
| 2026-05-04 06:14 | 60.16589 | 5.26096 | 2617 ft | 154 kts | 351° |
| 2026-05-04 06:14 | 60.17641 | 5.25765 | 2362 ft | 153 kts | 351° |
| 2026-05-04 06:15 | 60.18681 | 5.25430 | 2154 ft | 154 kts | 351° |
| 2026-05-04 06:15 | 60.19745 | 5.25085 | 1940 ft | 154 kts | 351° |
| 2026-05-04 06:15 | 60.20799 | 5.24733 | 1756 ft | 152 kts | 351° |
| 2026-05-04 06:15 | 60.21843 | 5.24383 | 1515 ft | 149 kts | 351° |
| 2026-05-04 06:16 | 60.22829 | 5.24038 | 1278 ft | 138 kts | 351° |
| 2026-05-04 06:16 | 60.23745 | 5.23664 | 1035 ft | 134 kts | 349° |
| 2026-05-04 06:16 | 60.24646 | 5.23344 | 912 ft | 127 kts | 353° |
| 2026-05-04 06:16 | 60.25521 | 5.23082 | 809 ft | 127 kts | 350° |
| 2026-05-04 06:17 | 60.26393 | 5.22766 | 592 ft | 127 kts | 353° |
| 2026-05-04 06:17 | 60.27275 | 5.22495 | 378 ft | 130 kts | 352° |
| 2026-05-04 06:17 | 60.28165 | 5.22199 | 219 ft | 128 kts | 352° |
| 2026-05-04 06:17 | 60.29001 | 5.21926 | 165 ft | 111 kts | 349° |
| 2026-05-04 06:18 | 60.29510 | 5.21755 | 148 ft | 45 kts | 351° |
| 2026-05-04 06:18 | 60.29684 | 5.21718 | 146 ft | 11 kts | 22° |
| 2026-05-04 06:18 | 60.29710 | 5.21843 | 149 ft | 8 kts | 82° |
| 2026-05-04 06:20 | 60.29416 | 5.22105 | 158 ft | 11 kts | 169° |
| 2026-05-04 06:20 | 60.29337 | 5.22133 | 161 ft | 11 kts | 168° |
| 2026-05-04 06:21 | 60.29074 | 5.22283 | 170 ft | 5 kts | 92° |
| 2026-05-04 06:21 | 60.29069 | 5.22325 | 171 ft | 2 kts | 116° |
| 2026-05-04 06:22 | 60.29034 | 5.22384 | 173 ft | 10 kts | 128° |
| 2026-05-04 06:22 | 60.29035 | 5.22515 | 175 ft | 6 kts | 81° |
| 2026-05-04 06:25 | 60.29092 | 5.22663 | 178 ft | 0 kts | 31° |